Braham, Minnesota
Current Conditions -  °F | °C
As of 7:35 PM on Tuesday 27 Jan 2015 (Local Time) from KROS Reporting Station
Overcast Overcast  
Wind Chill: 23°   Ceiling: 1700
Heat Index: 30°   Visibility: 10mi
Dew Point: 25°   Wind: 7mph
Humidity: 80%   Direction: 150°SSE
Pressure: 30.13"   Gusts: NA
Location:  45.72°N, 93.17°W
Report Text: KROS 280135Z AUTO 15006KT 10SM OVC017 M01/M04 A3013 RMK AO2 T10111041
Loading
Personal Weather Stations






























Interactive Weather Map New forecast layout! Learn more

10-Day Weather Forecast

Advertisements
Track Severe Weather on mobile